Time;durP1;ratioP1;P1;durP2;ratioP2;P2;SDS_P1;SDS_P2;PMS_P1;PMS_P2;Temp;Humidity;BMP_temperature;BMP_pressure;BME280_temperature;BME280_humidity;BME280_pressure;Samples;Min_cycle;Max_cycle;Signal;HPM_P1;HPM_P2
2022/06/22 00:02:20;;;;;;;10.85;7.35;;;13.30;94.70;;;;;;5011249;28;20026;-49
2022/06/22 00:04:51;;;;;;;9.77;6.75;;;13.30;95.00;;;;;;5010982;28;20042;-43
2022/06/22 00:07:24;;;;;;;9.95;6.25;;;13.20;94.90;;;;;;5010641;28;20026;-52
2022/06/22 00:09:56;;;;;;;11.90;6.82;;;13.20;95.00;;;;;;5010881;28;20068;-54
2022/06/22 00:12:30;;;;;;;8.52;6.10;;;13.20;95.00;;;;;;5010991;28;20072;-57
2022/06/22 00:14:58;;;;;;;8.13;6.75;;;13.10;95.10;;;;;;5010788;28;20058;-43
2022/06/22 00:17:37;;;;;;;12.10;7.07;;;13.10;95.00;;;;;;5010637;28;20030;-49
2022/06/22 00:20:15;;;;;;;12.40;6.97;;;13.10;95.10;;;;;;5010710;28;20026;-49
2022/06/22 00:22:56;;;;;;;9.13;7.18;;;13.10;95.00;;;;;;5011004;28;20392;-51
2022/06/22 00:25:38;;;;;;;13.80;7.65;;;13.10;95.00;;;;;;5010818;28;20547;-46
2022/06/22 00:28:45;;;;;;;12.15;7.60;;;13.00;94.90;;;;;;5010478;28;20501;-54
2022/06/22 00:31:21;;;;;;;13.93;7.80;;;13.00;95.00;;;;;;5010625;28;20100;-52
2022/06/22 00:34:14;;;;;;;10.35;7.53;;;13.00;94.90;;;;;;5010595;28;20120;-53
2022/06/22 00:36:48;;;;;;;10.52;6.95;;;13.00;94.90;;;;;;5010518;28;20018;-52
2022/06/22 00:39:29;;;;;;;12.00;7.53;;;12.90;95.00;;;;;;5010539;28;20067;-50
2022/06/22 00:42:16;;;;;;;12.10;7.80;;;12.90;94.90;;;;;;5010716;28;20113;-44
2022/06/22 00:44:46;;;;;;;12.48;8.20;;;12.90;95.00;;;;;;5010573;28;20049;-52
2022/06/22 00:47:42;;;;;;;11.15;8.15;;;12.80;95.00;;;;;;5012051;28;20088;-60
2022/06/22 00:50:19;;;;;;;14.90;8.00;;;12.70;95.00;;;;;;4999307;28;20030;-46
2022/06/22 00:52:51;;;;;;;12.25;8.05;;;12.70;95.10;;;;;;5014011;28;20112;-51
2022/06/22 00:55:32;;;;;;;11.77;7.88;;;12.70;95.20;;;;;;5014294;28;20037;-56
2022/06/22 00:58:15;;;;;;;11.82;7.68;;;12.70;95.20;;;;;;5013696;28;20105;-54
2022/06/22 01:00:46;;;;;;;12.80;8.50;;;12.60;95.40;;;;;;5014072;28;20556;-59
2022/06/22 01:03:24;;;;;;;12.43;8.00;;;12.60;95.40;;;;;;5013805;28;20029;-57
2022/06/22 01:05:53;;;;;;;13.10;8.60;;;12.70;95.30;;;;;;5013899;28;20080;-58
2022/06/22 01:08:43;;;;;;;11.68;8.00;;;12.60;95.20;;;;;;5013536;28;20021;-59
2022/06/22 01:14:34;;;;;;;17.48;10.88;;;12.70;95.40;;;;;;4993077;28;20056;-58
2022/06/22 01:17:03;;;;;;;18.88;11.30;;;12.70;95.60;;;;;;5013198;28;20403;-53
2022/06/22 01:19:53;;;;;;;15.23;10.45;;;12.70;95.60;;;;;;5013730;28;20022;-49
2022/06/22 01:22:37;;;;;;;16.67;11.02;;;12.70;95.50;;;;;;5013636;28;20034;-58
2022/06/22 01:25:05;;;;;;;20.70;12.32;;;12.70;95.40;;;;;;5013600;28;20026;-58
2022/06/22 01:27:39;;;;;;;16.03;11.23;;;12.70;95.40;;;;;;5013162;28;20558;-55
2022/06/22 01:30:37;;;;;;;20.40;12.43;;;12.70;95.50;;;;;;5013270;28;20033;-59
2022/06/22 01:33:08;;;;;;;16.88;11.55;;;12.70;95.40;;;;;;5013568;28;20038;-51
2022/06/22 01:35:37;;;;;;;19.38;12.82;;;12.70;95.40;;;;;;5013620;28;20057;-58
2022/06/22 01:38:26;;;;;;;19.83;12.60;;;12.70;95.40;;;;;;5013171;28;20071;-61
2022/06/22 01:41:14;;;;;;;19.75;13.07;;;12.70;95.50;;;;;;5012000;28;20026;-59
2022/06/22 01:44:00;;;;;;;21.83;13.50;;;12.70;95.50;;;;;;5009473;28;20365;-56
2022/06/22 01:46:32;;;;;;;18.40;12.75;;;12.70;95.50;;;;;;5012691;28;20029;-54
2022/06/22 01:49:06;;;;;;;16.30;11.60;;;12.70;95.50;;;;;;5012943;28;20025;-56
2022/06/22 01:51:34;;;;;;;18.45;11.27;;;12.60;95.30;;;;;;5013185;28;20052;-56
2022/06/22 01:54:26;;;;;;;16.83;11.25;;;12.60;95.30;;;;;;5013023;28;20069;-58
2022/06/22 01:57:06;;;;;;;18.10;11.40;;;12.50;95.40;;;;;;5011553;28;20046;-61
2022/06/22 02:00:10;;;;;;;18.60;12.90;;;12.40;95.60;;;;;;5011655;28;20042;-55
2022/06/22 02:02:42;;;;;;;19.10;12.07;;;12.40;95.70;;;;;;5012426;28;20503;-59
2022/06/22 02:05:29;;;;;;;20.50;12.07;;;12.40;95.60;;;;;;5012953;28;20025;-56
2022/06/22 02:08:14;;;;;;;18.42;11.85;;;12.40;95.60;;;;;;5012275;28;20040;-61
2022/06/22 02:11:03;;;;;;;17.80;11.68;;;12.40;95.70;;;;;;5012664;28;20040;-61
2022/06/22 02:13:53;;;;;;;18.90;12.07;;;12.40;95.80;;;;;;5012427;28;20042;-56
2022/06/22 02:16:49;;;;;;;17.98;12.18;;;12.40;95.80;;;;;;5012340;28;20079;-52
2022/06/22 02:19:18;;;;;;;19.08;12.45;;;12.30;95.80;;;;;;5005626;28;20026;-57
2022/06/22 02:21:43;;;;;;;18.00;11.88;;;12.30;95.90;;;;;;5012550;28;20093;-51
2022/06/22 02:24:26;;;;;;;18.15;12.15;;;12.30;96.00;;;;;;5012440;28;20417;-53
2022/06/22 02:26:57;;;;;;;20.08;12.27;;;12.20;96.00;;;;;;5012031;28;20101;-55
2022/06/22 02:29:32;;;;;;;16.73;11.90;;;12.10;96.20;;;;;;5012391;28;20033;-60
2022/06/22 02:32:03;;;;;;;19.50;12.77;;;12.10;96.50;;;;;;5012099;28;20025;-48
2022/06/22 02:34:31;;;;;;;18.80;13.05;;;12.10;96.50;;;;;;5012295;28;20384;-59
2022/06/22 02:37:00;;;;;;;20.30;13.85;;;12.00;96.60;;;;;;5012090;28;20022;-54
2022/06/22 02:39:29;;;;;;;20.13;13.73;;;12.00;96.70;;;;;;5012578;28;20061;-56
2022/06/22 02:44:41;;;;;;;18.92;13.20;;;12.00;96.90;;;;;;5000250;28;20276;-51
2022/06/22 02:47:10;;;;;;;16.73;13.25;;;12.00;96.80;;;;;;5012040;28;20026;-53
2022/06/22 02:49:41;;;;;;;22.83;13.97;;;12.00;96.90;;;;;;5011512;28;20088;-59
2022/06/22 02:52:11;;;;;;;16.52;12.38;;;12.00;96.80;;;;;;5012050;28;20793;-56
2022/06/22 02:54:46;;;;;;;15.65;12.60;;;12.00;96.70;;;;;;5011536;28;20505;-48
2022/06/22 02:57:26;;;;;;;16.50;12.27;;;12.00;96.70;;;;;;5012108;28;20029;-53
2022/06/22 02:59:52;;;;;;;18.60;13.10;;;12.00;96.70;;;;;;5011420;28;20026;-59
2022/06/22 03:02:22;;;;;;;15.23;12.00;;;12.00;96.70;;;;;;5012163;28;20052;-56
2022/06/22 03:04:50;;;;;;;18.05;11.77;;;12.00;96.70;;;;;;5011354;28;20017;-48
2022/06/22 03:07:18;;;;;;;14.20;11.93;;;12.00;96.70;;;;;;5011891;28;20022;-52
2022/06/22 03:09:44;;;;;;;16.50;12.57;;;12.00;96.60;;;;;;5011126;28;20018;-53
2022/06/22 03:12:13;;;;;;;18.58;12.63;;;12.00;96.40;;;;;;5011490;28;20117;-53
2022/06/22 03:14:48;;;;;;;16.95;12.85;;;12.00;96.40;;;;;;5011110;28;20045;-60
2022/06/22 03:17:22;;;;;;;19.38;12.68;;;11.90;96.50;;;;;;5011680;28;20018;-49
2022/06/22 03:19:59;;;;;;;17.13;13.45;;;11.90;96.70;;;;;;5010891;28;20033;-54
2022/06/22 03:22:34;;;;;;;22.30;14.43;;;11.90;97.00;;;;;;5010527;28;20030;-57
2022/06/22 03:25:32;;;;;;;21.08;15.45;;;12.00;97.10;;;;;;5011041;28;20014;-54
2022/06/22 03:28:03;;;;;;;21.47;14.30;;;12.00;97.10;;;;;;5011495;28;20041;-54
2022/06/22 03:30:36;;;;;;;17.70;12.15;;;12.00;96.70;;;;;;5011237;28;20100;-55
2022/06/22 03:33:17;;;;;;;16.63;11.55;;;12.00;96.10;;;;;;5011439;28;20108;-51
2022/06/22 03:35:51;;;;;;;17.33;11.32;;;11.80;95.80;;;;;;5010987;28;20034;-56
2022/06/22 03:38:22;;;;;;;21.35;12.68;;;11.70;96.10;;;;;;5011267;28;20508;-60
2022/06/22 03:40:58;;;;;;;16.98;12.05;;;11.70;96.40;;;;;;5010801;28;20030;-45
2022/06/22 03:43:50;;;;;;;17.38;11.95;;;11.60;96.40;;;;;;4997212;28;20504;-56
2022/06/22 03:46:22;;;;;;;14.88;11.50;;;11.60;96.60;;;;;;5008920;28;20109;-53
2022/06/22 03:48:54;;;;;;;17.38;13.07;;;11.60;96.60;;;;;;5011200;28;20425;-60
2022/06/22 03:51:28;;;;;;;22.70;13.50;;;11.60;96.80;;;;;;5006489;28;20473;-52
2022/06/22 03:54:12;;;;;;;17.50;13.20;;;11.60;96.80;;;;;;5011245;28;20042;-55
2022/06/22 03:56:45;;;;;;;18.08;13.35;;;11.60;96.70;;;;;;5008949;28;20110;-57
2022/06/22 03:59:11;;;;;;;18.45;12.90;;;11.60;96.90;;;;;;5011261;28;20103;-50
2022/06/22 04:01:37;;;;;;;16.65;12.00;;;11.60;97.00;;;;;;5010832;28;20474;-46
2022/06/22 04:04:04;;;;;;;21.40;13.00;;;11.60;97.10;;;;;;5011161;28;20553;-51
2022/06/22 04:06:43;;;;;;;15.07;12.25;;;11.60;97.30;;;;;;5010530;28;20113;-52
2022/06/22 04:09:18;;;;;;;16.65;12.57;;;11.60;97.20;;;;;;5011108;28;20062;-61
2022/06/22 04:12:06;;;;;;;18.35;13.00;;;11.70;97.20;;;;;;5010805;28;20034;-57
2022/06/22 04:14:48;;;;;;;18.85;12.63;;;11.70;97.10;;;;;;5010301;28;20042;-49
2022/06/22 04:17:34;;;;;;;16.10;12.05;;;11.70;97.00;;;;;;5000582;28;20022;-51
2022/06/22 04:20:02;;;;;;;19.65;12.40;;;11.80;97.00;;;;;;5007147;28;20026;-54
2022/06/22 04:22:31;;;;;;;19.30;12.00;;;11.80;97.10;;;;;;5002631;28;20030;-47
2022/06/22 04:25:11;;;;;;;19.30;13.15;;;11.80;97.10;;;;;;5014335;28;20034;-54
2022/06/22 04:27:41;;;;;;;18.30;12.45;;;11.80;97.10;;;;;;5014798;28;20034;-56
2022/06/22 04:30:19;;;;;;;17.98;13.15;;;11.90;97.40;;;;;;5014392;28;20022;-55
2022/06/22 04:33:14;;;;;;;17.77;12.38;;;11.90;97.30;;;;;;5014625;28;20084;-55
2022/06/22 04:35:54;;;;;;;18.45;13.00;;;12.00;97.20;;;;;;5004602;28;20041;-60
2022/06/22 04:38:27;;;;;;;18.33;13.38;;;12.00;97.30;;;;;;5014397;28;20026;-59
2022/06/22 04:41:04;;;;;;;16.52;12.60;;;12.10;97.20;;;;;;5014258;28;20034;-60
2022/06/22 04:43:31;;;;;;;17.63;12.57;;;12.10;97.20;;;;;;5014500;28;20026;-63
2022/06/22 04:45:57;;;;;;;18.08;12.85;;;12.10;97.20;;;;;;5014123;28;20037;-57
2022/06/22 04:48:38;;;;;;;18.58;12.30;;;12.10;97.10;;;;;;5014119;28;20100;-56
2022/06/22 04:51:06;;;;;;;15.93;12.20;;;12.20;97.30;;;;;;5014144;28;20327;-49
2022/06/22 04:53:58;;;;;;;14.50;10.90;;;12.30;97.00;;;;;;5014150;28;20038;-55
2022/06/22 04:56:47;;;;;;;15.40;10.38;;;12.50;97.30;;;;;;5013469;28;20026;-47
2022/06/22 04:59:15;;;;;;;13.60;10.38;;;13.10;96.50;;;;;;5014008;28;20029;-50
2022/06/22 05:01:49;;;;;;;18.80;10.05;;;13.60;96.00;;;;;;5013677;28;20396;-56
2022/06/22 05:04:20;;;;;;;10.23;8.52;;;14.10;94.80;;;;;;5013950;28;20452;-51
2022/06/22 05:07:04;;;;;;;15.57;9.05;;;14.70;93.70;;;;;;5013723;28;20030;-57
2022/06/22 05:09:40;;;;;;;16.13;8.93;;;15.10;92.30;;;;;;5013587;28;20034;-46
2022/06/22 05:12:16;;;;;;;8.85;6.88;;;15.40;91.00;;;;;;5007508;28;20054;-50
2022/06/22 05:14:43;;;;;;;10.35;6.90;;;15.70;90.70;;;;;;5012506;28;20049;-57
2022/06/22 05:17:34;;;;;;;9.15;6.50;;;15.80;90.00;;;;;;5010941;28;20060;-61
2022/06/22 05:20:19;;;;;;;10.02;6.47;;;15.90;90.10;;;;;;5011689;28;20138;-54
2022/06/22 05:22:47;;;;;;;9.52;6.40;;;15.80;90.00;;;;;;5011384;28;20049;-43
2022/06/22 05:25:13;;;;;;;8.90;5.72;;;15.70;90.80;;;;;;5008742;28;20028;-50
2022/06/22 05:27:55;;;;;;;9.93;6.00;;;15.50;91.20;;;;;;5002168;28;20030;-46
2022/06/22 05:30:21;;;;;;;11.65;7.85;;;15.40;91.30;;;;;;5012989;28;20088;-47
2022/06/22 05:33:03;;;;;;;8.70;5.93;;;15.40;92.10;;;;;;5013156;28;20511;-45
2022/06/22 05:35:36;;;;;;;8.75;5.85;;;15.50;92.00;;;;;;5013102;28;20052;-49
2022/06/22 05:38:06;;;;;;;8.93;5.75;;;15.60;92.30;;;;;;5013198;28;20025;-47
2022/06/22 05:40:34;;;;;;;9.18;5.82;;;15.70;92.30;;;;;;5012831;28;20076;-47
2022/06/22 05:43:00;;;;;;;7.75;5.50;;;15.80;92.00;;;;;;5013219;28;20137;-55
2022/06/22 05:45:30;;;;;;;9.30;6.10;;;16.10;91.00;;;;;;5013058;28;20425;-49
2022/06/22 05:47:57;;;;;;;10.35;5.32;;;16.50;90.90;;;;;;5012982;28;20029;-44
2022/06/22 05:50:26;;;;;;;10.82;5.40;;;17.00;91.00;;;;;;5012901;28;20036;-47
2022/06/22 05:52:55;;;;;;;;;;;17.50;87.40;;;;;;5009058;28;20076;-43
2022/06/22 05:55:46;;;;;;;8.35;4.88;;;18.20;84.80;;;;;;5008564;28;19913;-44
2022/06/22 05:58:14;;;;;;;7.38;4.63;;;19.20;83.90;;;;;;5011395;28;20026;-55
2022/06/22 06:00:44;;;;;;;7.47;4.57;;;19.80;77.90;;;;;;5010808;28;20393;-45
2022/06/22 06:03:22;;;;;;;8.02;4.43;;;20.70;77.30;;;;;;5012013;28;20105;-47
2022/06/22 06:05:54;;;;;;;6.65;4.32;;;21.40;72.00;;;;;;5012336;28;20061;-45
2022/06/22 06:08:24;;;;;;;7.22;3.78;;;22.10;70.10;;;;;;5011838;28;20489;-51
2022/06/22 06:10:50;;;;;;;7.80;4.30;;;22.70;69.40;;;;;;5011675;28;20034;-49
2022/06/22 06:13:16;;;;;;;7.28;3.80;;;23.30;66.90;;;;;;5010538;28;20117;-44
2022/06/22 06:15:45;;;;;;;6.10;4.00;;;23.70;64.60;;;;;;5010295;28;20464;-50
2022/06/22 06:18:16;;;;;;;7.32;3.97;;;24.10;64.40;;;;;;5010475;28;20080;-45
2022/06/22 06:20:47;;;;;;;7.10;4.07;;;24.60;64.60;;;;;;5010607;28;20030;-50
2022/06/22 06:23:38;;;;;;;7.13;4.30;;;24.90;62.70;;;;;;5010208;28;20473;-51
2022/06/22 06:29:10;;;;;;;6.18;3.95;;;24.80;57.40;;;;;;5012382;28;20029;-54
2022/06/22 06:32:04;;;;;;;4.18;3.33;;;24.50;60.10;;;;;;5008120;28;20050;-58
2022/06/22 06:34:46;;;;;;;7.53;3.78;;;25.00;59.90;;;;;;5011966;28;20030;-51
2022/06/22 06:37:18;;;;;;;6.05;3.97;;;24.80;56.30;;;;;;5012314;28;20022;-58
2022/06/22 06:39:47;;;;;;;6.03;3.60;;;25.20;60.40;;;;;;5012099;28;20029;-46
2022/06/22 06:42:20;;;;;;;6.00;3.20;;;25.40;56.60;;;;;;5012090;28;20477;-46
2022/06/22 06:44:47;;;;;;;7.75;4.00;;;25.70;56.70;;;;;;5011484;28;20040;-55
2022/06/22 06:47:23;;;;;;;6.45;2.90;;;26.00;53.90;;;;;;5011608;28;20032;-53
2022/06/22 06:49:55;;;;;;;6.22;2.80;;;26.10;55.70;;;;;;5011955;28;20030;-46
2022/06/22 06:52:33;;;;;;;6.38;2.95;;;26.70;55.30;;;;;;5011351;28;20428;-53
2022/06/22 06:55:02;;;;;;;5.13;2.60;;;26.80;52.10;;;;;;5012069;28;20029;-51
2022/06/22 06:57:29;;;;;;;5.00;2.58;;;27.60;55.70;;;;;;5007637;28;20056;-58
2022/06/22 06:59:59;;;;;;;5.00;2.47;;;28.10;52.60;;;;;;5010816;28;20053;-56
2022/06/22 07:02:27;;;;;;;4.30;2.47;;;28.20;50.20;;;;;;5011564;28;20088;-54
2022/06/22 07:04:52;;;;;;;6.28;2.88;;;28.50;48.90;;;;;;5011777;28;20464;-52
2022/06/22 07:07:31;;;;;;;4.95;2.30;;;28.50;47.10;;;;;;5011874;28;20034;-53
2022/06/22 07:09:59;;;;;;;;;;;29.20;46.50;;;;;;5011266;28;20045;-48
2022/06/22 07:12:34;;;;;;;4.70;2.08;;;29.50;47.50;;;;;;5011790;28;19912;-46
2022/06/22 07:15:03;;;;;;;7.03;2.60;;;30.10;47.20;;;;;;5011212;28;20054;-51
2022/06/22 07:17:32;;;;;;;4.68;2.40;;;30.10;45.30;;;;;;5011316;28;20030;-52
2022/06/22 07:20:26;;;;;;;5.10;2.10;;;30.40;43.90;;;;;;5011139;28;20488;-54
2022/06/22 07:23:00;;;;;;;4.15;2.17;;;30.60;46.10;;;;;;5004550;28;20045;-54
2022/06/22 07:25:32;;;;;;;3.42;2.40;;;31.00;42.90;;;;;;5010865;28;20117;-53
2022/06/22 07:28:06;;;;;;;3.90;2.20;;;30.90;41.70;;;;;;5011420;28;20026;-48
2022/06/22 07:30:37;;;;;;;5.82;1.80;;;31.00;43.40;;;;;;5011119;28;20456;-53
2022/06/22 07:33:28;;;;;;;7.40;2.55;;;31.40;42.70;;;;;;5010953;28;20108;-58
2022/06/22 07:36:16;;;;;;;4.30;2.03;;;31.60;40.30;;;;;;5009451;28;20120;-59
2022/06/22 07:38:47;;;;;;;3.22;1.75;;;31.80;42.00;;;;;;5008598;28;20053;-56
2022/06/22 07:41:18;;;;;;;4.10;2.03;;;31.80;41.10;;;;;;5001239;28;20023;-55
2022/06/22 07:43:49;;;;;;;4.50;1.80;;;31.60;38.20;;;;;;4994228;28;20070;-54
2022/06/22 07:46:39;;;;;;;4.15;1.90;;;31.70;39.50;;;;;;4998895;28;20022;-56
2022/06/22 07:49:17;;;;;;;5.00;2.00;;;31.80;37.10;;;;;;5009980;28;20033;-52
2022/06/22 07:51:54;;;;;;;3.97;1.80;;;31.90;39.40;;;;;;5002310;28;20045;-52
2022/06/22 07:54:32;;;;;;;3.47;1.80;;;32.20;39.50;;;;;;5009520;28;20477;-49
2022/06/22 07:57:03;;;;;;;3.88;1.73;;;32.20;35.50;;;;;;5011500;28;20109;-58
2022/06/22 07:59:51;;;;;;;2.53;1.58;;;31.70;35.40;;;;;;5014633;28;20021;-59
2022/06/22 08:02:38;;;;;;;;;;;32.30;39.70;;;;;;5014601;28;20022;-51
2022/06/22 08:05:11;;;;;;;2.97;1.55;;;32.90;37.80;;;;;;5002192;28;20372;-50
2022/06/22 08:07:50;;;;;;;4.63;1.60;;;33.20;35.00;;;;;;5013751;28;20500;-48
2022/06/22 08:10:39;;;;;;;3.63;1.60;;;32.90;35.50;;;;;;5013450;28;20075;-53
2022/06/22 08:13:33;;;;;;;3.78;1.40;;;33.00;36.80;;;;;;5013583;28;20061;-48
2022/06/22 08:16:06;;;;;;;2.97;1.40;;;33.20;35.20;;;;;;5014390;28;20037;-55
2022/06/22 08:18:32;;;;;;;2.42;1.30;;;33.60;34.10;;;;;;5014830;28;20107;-56
2022/06/22 08:20:58;;;;;;;2.05;1.30;;;33.90;35.80;;;;;;5014716;28;20029;-48
2022/06/22 08:23:27;;;;;;;3.47;1.10;;;33.40;29.90;;;;;;5014787;28;20033;-56
2022/06/22 08:25:55;;;;;;;2.83;1.10;;;33.00;30.20;;;;;;5014677;28;20069;-53
2022/06/22 08:28:22;;;;;;;2.72;1.40;;;33.30;34.20;;;;;;5013175;28;20117;-50
2022/06/22 08:30:50;;;;;;;2.25;1.27;;;33.60;31.80;;;;;;5014604;28;20450;-51
2022/06/22 08:33:29;;;;;;;3.15;1.20;;;33.20;31.00;;;;;;5014304;28;20481;-44
2022/06/22 08:36:06;;;;;;;1.58;0.90;;;33.30;34.00;;;;;;5004044;28;20034;-45
2022/06/22 08:38:40;;;;;;;3.17;1.00;;;33.50;33.00;;;;;;5012951;28;20030;-51
2022/06/22 08:41:27;;;;;;;2.15;0.80;;;33.70;32.70;;;;;;5014437;28;20083;-57
2022/06/22 08:44:18;;;;;;;1.65;0.80;;;33.50;31.60;;;;;;5012994;28;20029;-54
2022/06/22 08:47:17;;;;;;;1.35;0.93;;;33.30;28.20;;;;;;5008600;28;20037;-53
2022/06/22 08:49:46;;;;;;;2.60;1.10;;;32.40;28.80;;;;;;5004718;28;20577;-56
2022/06/22 08:52:32;;;;;;;1.42;0.80;;;31.90;29.70;;;;;;5013140;28;20104;-44
2022/06/22 08:55:26;;;;;;;3.33;1.00;;;31.70;29.90;;;;;;5006668;28;20034;-49
2022/06/22 08:58:02;;;;;;;2.83;0.90;;;31.30;31.60;;;;;;4997382;28;20026;-54
2022/06/22 09:00:50;;;;;;;2.33;0.88;;;31.30;32.00;;;;;;4994405;28;20069;-48
2022/06/22 09:03:27;;;;;;;2.10;1.00;;;31.40;30.00;;;;;;5007575;28;20046;-46
2022/06/22 09:06:18;;;;;;;1.67;1.00;;;31.20;29.80;;;;;;5007480;28;20088;-45
2022/06/22 09:09:18;;;;;;;1.98;1.00;;;31.10;31.30;;;;;;5004641;28;20037;-52
2022/06/22 09:12:18;;;;;;;2.08;1.02;;;31.50;33.90;;;;;;5012339;28;20030;-57
2022/06/22 09:15:00;;;;;;;1.52;0.95;;;31.40;30.50;;;;;;5003069;28;20093;-57
2022/06/22 09:17:41;;;;;;;1.92;1.00;;;31.20;34.30;;;;;;5013681;28;20505;-55
2022/06/22 09:20:22;;;;;;;3.25;1.58;;;31.50;33.00;;;;;;5013630;28;20430;-46
2022/06/22 09:22:58;;;;;;;2.20;1.20;;;31.90;32.80;;;;;;5012810;28;20033;-50
2022/06/22 09:25:41;;;;;;;2.80;1.50;;;31.40;32.10;;;;;;5008452;28;20027;-50
2022/06/22 09:28:17;;;;;;;2.50;1.35;;;31.40;32.00;;;;;;5001860;28;20022;-45
2022/06/22 09:31:07;;;;;;;1.70;1.10;;;31.70;35.30;;;;;;4996071;28;20398;-54
2022/06/22 09:33:49;;;;;;;3.53;1.17;;;32.20;32.70;;;;;;4999497;28;20438;-45
2022/06/22 09:36:52;;;;;;;2.13;1.30;;;32.40;31.50;;;;;;5013325;28;20033;-58
2022/06/22 09:39:29;;;;;;;3.72;1.40;;;32.60;35.50;;;;;;5013261;28;20029;-57
2022/06/22 09:42:16;;;;;;;2.58;1.08;;;32.50;31.10;;;;;;5010086;28;20014;-59
2022/06/22 09:45:10;;;;;;;2.83;1.10;;;32.80;33.60;;;;;;5001384;28;20034;-56
2022/06/22 09:48:02;;;;;;;2.53;1.23;;;32.80;31.90;;;;;;5006762;28;20038;-57
2022/06/22 09:50:43;;;;;;;3.08;1.17;;;32.60;29.60;;;;;;5010260;28;20030;-50
2022/06/22 09:53:09;;;;;;;2.90;1.30;;;32.60;29.50;;;;;;5000093;28;20045;-48
2022/06/22 09:58:54;;;;;;;1.67;1.05;;;32.10;30.00;;;;;;5003677;28;20057;-55
2022/06/22 10:01:23;;;;;;;2.90;1.10;;;32.10;29.90;;;;;;5012602;28;20384;-52
2022/06/22 10:04:10;;;;;;;1.55;0.90;;;32.20;31.40;;;;;;5011718;28;20159;-55
2022/06/22 10:07:00;;;;;;;1.92;1.17;;;32.30;28.40;;;;;;5006648;28;20034;-50
2022/06/22 10:09:34;;;;;;;1.65;1.00;;;32.20;29.20;;;;;;4999199;28;20057;-55
2022/06/22 10:12:27;;;;;;;1.25;1.00;;;32.30;29.40;;;;;;5006154;28;20084;-60
2022/06/22 10:15:39;;;;;;;1.52;0.90;;;32.10;31.40;;;;;;5003318;28;20061;-58
2022/06/22 10:18:26;;;;;;;1.70;0.90;;;31.90;28.70;;;;;;4995827;28;20018;-56
2022/06/22 10:21:04;;;;;;;2.22;1.00;;;32.00;27.90;;;;;;5000093;28;20030;-58
2022/06/22 10:23:41;;;;;;;2.08;0.90;;;31.50;26.80;;;;;;4997479;28;20048;-54
2022/06/22 10:26:30;;;;;;;1.65;0.90;;;31.30;29.70;;;;;;5004990;28;20026;-52
2022/06/22 10:29:14;;;;;;;2.25;1.10;;;31.00;29.10;;;;;;5011171;28;20493;-51
2022/06/22 10:32:09;;;;;;;1.38;0.98;;;31.20;32.10;;;;;;5012173;28;20061;-54
2022/06/22 10:34:43;;;;;;;2.42;1.20;;;31.00;29.00;;;;;;4986630;28;20058;-56
2022/06/22 10:37:27;;;;;;;2.22;0.93;;;31.20;31.30;;;;;;5012437;28;20084;-47
2022/06/22 10:40:12;;;;;;;1.30;0.90;;;31.20;28.00;;;;;;5006160;28;20033;-56
2022/06/22 10:46:03;;;;;;;4.22;1.10;;;31.20;34.30;;;;;;5012073;28;20519;-55
2022/06/22 10:49:03;;;;;;;1.40;0.90;;;31.40;30.40;;;;;;4997282;28;20173;-58
2022/06/22 10:51:58;;;;;;;1.40;0.93;;;31.20;32.80;;;;;;4999701;28;20040;-47
2022/06/22 10:54:45;;;;;;;2.47;1.17;;;31.40;30.70;;;;;;5009968;28;20629;-52
2022/06/22 10:57:49;;;;;;;2.75;1.10;;;31.30;29.90;;;;;;5012051;28;20026;-58
2022/06/22 11:00:36;;;;;;;1.55;0.93;;;31.60;35.90;;;;;;4981228;28;20041;-60
2022/06/22 11:03:20;;;;;;;1.80;1.10;;;31.70;34.70;;;;;;5010489;28;20018;-61
2022/06/22 11:06:11;;;;;;;1.85;1.10;;;32.00;32.10;;;;;;5011675;28;20018;-50
2022/06/22 11:09:06;;;;;;;1.90;0.98;;;32.00;31.70;;;;;;5002910;28;20382;-55
2022/06/22 11:12:16;;;;;;;1.48;0.93;;;31.90;31.40;;;;;;5008853;28;20091;-50
2022/06/22 11:15:11;;;;;;;2.28;1.10;;;31.70;32.90;;;;;;4979080;28;20060;-56
2022/06/22 11:18:07;;;;;;;2.85;1.20;;;31.10;28.00;;;;;;5002491;28;20041;-58
2022/06/22 11:20:42;;;;;;;2.55;1.10;;;29.90;30.00;;;;;;5011664;28;20077;-55
2022/06/22 11:23:11;;;;;;;2.70;1.08;;;29.60;30.70;;;;;;5011578;28;20022;-57
2022/06/22 11:32:33;;;;;;;1.75;0.90;;;29.60;33.50;;;;;;4953057;28;20079;-57
2022/06/22 11:35:31;;;;;;;1.65;0.95;;;30.10;32.40;;;;;;5009492;28;20133;-57
2022/06/22 11:38:16;;;;;;;2.70;1.00;;;30.40;30.60;;;;;;5011151;28;20489;-50
2022/06/22 11:40:47;;;;;;;2.13;0.90;;;30.50;32.60;;;;;;5011086;28;20389;-47
2022/06/22 11:43:46;;;;;;;2.13;1.10;;;30.50;30.50;;;;;;5011187;28;20092;-51
2022/06/22 11:46:33;;;;;;;1.63;0.90;;;30.40;32.30;;;;;;5011184;28;20026;-52
2022/06/22 11:49:19;;;;;;;1.83;0.90;;;30.20;31.70;;;;;;5009666;28;20022;-48
2022/06/22 11:52:04;;;;;;;1.63;0.90;;;30.00;31.30;;;;;;5011206;28;20418;-55
2022/06/22 11:54:54;;;;;;;2.35;1.02;;;29.00;29.00;;;;;;5011004;28;20038;-54
2022/06/22 11:57:35;;;;;;;1.90;0.82;;;29.10;35.00;;;;;;5009664;28;20481;-47
2022/06/22 12:00:21;;;;;;;3.72;1.25;;;29.40;33.70;;;;;;4997661;28;20088;-56
2022/06/22 12:02:57;;;;;;;1.73;1.00;;;29.60;34.00;;;;;;5011124;28;20042;-56
2022/06/22 12:05:35;;;;;;;2.05;1.00;;;29.50;35.50;;;;;;5010284;28;20044;-50
2022/06/22 12:08:06;;;;;;;2.63;1.10;;;29.80;35.60;;;;;;5010381;28;20033;-51
2022/06/22 12:11:12;;;;;;;2.03;1.08;;;29.60;34.10;;;;;;5001750;28;20069;-52
2022/06/22 12:17:01;;;;;;;1.83;1.00;;;28.60;33.10;;;;;;5011002;28;20092;-51
2022/06/22 12:19:36;;;;;;;3.08;1.10;;;28.70;33.50;;;;;;5010755;28;20144;-53
2022/06/22 12:22:26;;;;;;;2.05;1.08;;;28.80;35.60;;;;;;5010882;28;20093;-52
2022/06/22 12:25:01;;;;;;;2.13;1.30;;;28.90;35.70;;;;;;5007109;28;20021;-55
2022/06/22 12:27:36;;;;;;;1.77;1.10;;;28.70;34.40;;;;;;5010998;28;20018;-56
2022/06/22 12:30:40;;;;;;;1.52;0.98;;;28.60;35.30;;;;;;5010362;28;20026;-50
2022/06/22 12:33:20;;;;;;;3.45;1.10;;;28.70;37.10;;;;;;4975794;28;20046;-53
2022/06/22 12:36:01;;;;;;;3.13;1.17;;;28.70;37.10;;;;;;5010550;28;20033;-49
2022/06/22 12:38:44;;;;;;;3.22;1.00;;;28.60;35.70;;;;;;5010610;28;20500;-52
2022/06/22 12:41:37;;;;;;;1.50;1.00;;;28.30;34.50;;;;;;5010403;28;20401;-55
2022/06/22 12:44:39;;;;;;;2.35;1.15;;;28.00;36.10;;;;;;5009445;28;20036;-54
2022/06/22 12:47:26;;;;;;;4.70;1.05;;;27.60;33.70;;;;;;5014331;28;20018;-54
2022/06/22 12:50:29;;;;;;;2.50;1.10;;;27.40;34.40;;;;;;5006418;28;20401;-54
2022/06/22 12:53:05;;;;;;;2.60;1.30;;;27.10;35.80;;;;;;5011141;28;20477;-46
2022/06/22 12:55:39;;;;;;;3.47;1.38;;;27.20;37.40;;;;;;5013669;28;20396;-53
2022/06/22 12:58:48;;;;;;;1.77;1.00;;;27.30;37.20;;;;;;5009546;28;20500;-47
2022/06/22 13:01:14;;;;;;;1.42;1.10;;;27.40;36.70;;;;;;5006722;28;20403;-54
2022/06/22 13:03:49;;;;;;;2.60;1.30;;;27.50;35.80;;;;;;5006405;28;20023;-54
2022/06/22 13:06:15;;;;;;;1.88;1.17;;;27.40;36.70;;;;;;5005462;28;20072;-48
2022/06/22 13:08:42;;;;;;;1.73;1.30;;;27.20;35.10;;;;;;5003288;28;20021;-56
2022/06/22 13:11:17;;;;;;;3.22;1.27;;;27.10;37.50;;;;;;5013238;28;20038;-49
2022/06/22 13:13:58;;;;;;;2.80;1.00;;;27.10;38.10;;;;;;5014117;28;20033;-57
2022/06/22 13:16:28;;;;;;;3.28;1.20;;;27.20;38.40;;;;;;5013454;28;20128;-53
2022/06/22 13:19:27;;;;;;;2.38;1.10;;;27.20;39.30;;;;;;5013817;28;20018;-55
2022/06/22 13:22:14;;;;;;;3.15;0.98;;;27.10;37.60;;;;;;5013224;28;20068;-56
2022/06/22 13:24:59;;;;;;;2.40;1.20;;;27.00;38.40;;;;;;5013223;28;20434;-56
2022/06/22 13:27:47;;;;;;;3.22;1.17;;;26.90;40.60;;;;;;5010334;28;20025;-46
2022/06/22 13:30:22;;;;;;;1.90;1.13;;;26.70;40.20;;;;;;4999998;28;20026;-51
2022/06/22 13:33:07;;;;;;;2.35;1.02;;;26.60;40.10;;;;;;5000025;28;20130;-52
2022/06/22 13:35:42;;;;;;;5.15;1.30;;;26.50;40.30;;;;;;5006651;28;20041;-58
2022/06/22 13:38:26;;;;;;;2.42;1.00;;;26.40;41.10;;;;;;4998710;28;20026;-52
2022/06/22 13:41:19;;;;;;;3.72;1.35;;;26.40;40.90;;;;;;5003920;28;20373;-54
2022/06/22 13:43:50;;;;;;;2.40;1.02;;;26.60;41.40;;;;;;4993345;28;20018;-55
2022/06/22 13:46:19;;;;;;;3.38;1.33;;;26.50;39.70;;;;;;4995778;28;20026;-47
2022/06/22 13:49:00;;;;;;;2.63;0.90;;;26.50;39.70;;;;;;5010040;28;20026;-58
2022/06/22 13:51:44;;;;;;;3.17;1.13;;;26.20;38.10;;;;;;5000445;28;20066;-50
2022/06/22 13:54:28;;;;;;;2.85;1.20;;;26.20;38.30;;;;;;5012819;28;20042;-59
2022/06/22 13:57:31;;;;;;;2.88;0.90;;;26.20;39.20;;;;;;5013104;28;20021;-59
2022/06/22 14:00:13;;;;;;;3.53;1.13;;;26.00;39.90;;;;;;5011651;28;20025;-54
2022/06/22 14:02:58;;;;;;;2.70;0.98;;;25.90;39.60;;;;;;5012815;28;20117;-58
2022/06/22 14:05:39;;;;;;;4.30;1.20;;;25.80;41.00;;;;;;5012633;28;20029;-54
2022/06/22 14:08:16;;;;;;;1.75;1.10;;;25.90;40.10;;;;;;5012642;28;20041;-58